»·PEaware :: SKW1397 KSFO-KBUR

SKW1397 :: KSFO-KBUR

FLIGHT INFORMATION

Flight Status: Arrived
Operator:
SkyWest Airlines
More flights by this operator :: More flights under this callsign
Pilot: Tim M. (868)
Aircraft: MCDONNELL-DOUGLAS MD-82
(MD82)
More flights by this aircraft type
Origin: KSFO San Francisco Intl
United States
Destination: KBUR Bob Hope-Burbank
United States
More flights between these airports :: More routes between these airports
Route: +SSTIK4 CISKO DCT RDHOT ROKKR2
File this flight plan on PilotEdge
Remarks:
Altitude:
(Current/Filed)
35,000ft
Speed:
(Current/Filed)
447kts
Departed: 31-Aug-20 04:54 PM
Arrived: 31-Aug-20 05:48 PM
Distance/Time
Traveled:
283nm/0:54
Distance/Time
To Go:
Arrived

Flight Plot

Page will automatically refresh every two minutes.

Flight plan parsing failed; only flown route is shown


Map Options




Map Legend


Flown Route
Filed Route
Departure Airport
Arrival Airport
Navaid (VOR, NDB)
Fix

Horizontal Profiles

Position Reports

Time Latitude Longitude Heading Altitude Ground
Speed
31-Aug-20 16:14 37.614034 -122.384633 255 22ft 0kts
31-Aug-20 16:15 37.614034 -122.384633 255 22ft 0kts
31-Aug-20 16:16 37.614034 -122.384633 255 22ft 0kts
31-Aug-20 16:17 37.614034 -122.384633 255 22ft 0kts
31-Aug-20 16:18 37.614034 -122.384633 255 22ft 0kts
31-Aug-20 16:19 37.614034 -122.384633 255 22ft 0kts
31-Aug-20 16:20 37.614034 -122.384633 255 22ft 0kts
31-Aug-20 16:21 37.614034 -122.384633 255 22ft 0kts
31-Aug-20 16:22 37.614034 -122.384633 255 22ft 0kts
31-Aug-20 16:23 37.614034 -122.384633 255 22ft 0kts
31-Aug-20 16:24 37.614034 -122.384633 255 22ft 0kts
31-Aug-20 16:25 37.614034 -122.384633 255 22ft 0kts
31-Aug-20 16:26 37.614034 -122.384633 255 22ft 0kts
31-Aug-20 16:27 37.614034 -122.384633 255 22ft 0kts
31-Aug-20 16:28 37.614034 -122.384633 255 22ft 0kts
31-Aug-20 16:29 37.614034 -122.384633 255 22ft 0kts
31-Aug-20 16:30 37.614034 -122.384633 255 22ft 0kts
31-Aug-20 16:31 37.614034 -122.384633 255 22ft 0kts
31-Aug-20 16:32 37.614034 -122.384633 255 22ft 0kts
31-Aug-20 16:33 37.614034 -122.384633 255 22ft 0kts
31-Aug-20 16:34 37.614034 -122.384633 255 22ft 0kts
31-Aug-20 16:35 37.614034 -122.384633 255 22ft 0kts
31-Aug-20 16:36 37.614034 -122.384633 255 22ft 0kts
31-Aug-20 16:37 37.614034 -122.384633 255 22ft 0kts
31-Aug-20 16:38 37.614034 -122.384633 255 22ft 0kts
31-Aug-20 16:39 37.614034 -122.384633 255 22ft 0kts
31-Aug-20 16:40 37.614034 -122.384633 255 22ft 0kts
31-Aug-20 16:41 37.614072 -122.384452 255 22ft 1kts
31-Aug-20 16:42 37.614330 -122.383923 178 22ft 2kts
31-Aug-20 16:43 37.614496 -122.383918 184 22ft 0kts
31-Aug-20 16:44 37.614493 -122.383919 184 22ft 0kts
31-Aug-20 16:45 37.614491 -122.383919 184 22ft 0kts
31-Aug-20 16:46 37.614488 -122.383919 184 22ft 0kts
31-Aug-20 16:47 37.614486 -122.383919 184 22ft 0kts
31-Aug-20 16:48 37.614398 -122.383927 183 22ft 4kts
31-Aug-20 16:49 37.613723 -122.382852 116 22ft 0kts
31-Aug-20 16:50 37.612085 -122.382666 207 22ft 10kts
31-Aug-20 16:51 37.609376 -122.384722 207 22ft 11kts
31-Aug-20 16:52 37.608445 -122.382573 30 22ft 5kts
31-Aug-20 16:53 37.612356 -122.379972 26 22ft 76kts
31-Aug-20 16:54 37.648165 -122.360570 356 1125ft 171kts
31-Aug-20 16:55 37.696930 -122.369487 307 3353ft 187kts
31-Aug-20 16:56 37.674005 -122.427062 198 4885ft 255kts
31-Aug-20 16:57 37.600613 -122.446164 191 7461ft 278kts
31-Aug-20 16:58 37.522577 -122.465637 193 9955ft 291kts
31-Aug-20 16:59 37.455503 -122.459258 146 10427ft 349kts
31-Aug-20 17:00 37.391315 -122.356588 129 11471ft 391kts
31-Aug-20 17:01 37.314769 -122.260960 137 13892ft 388kts
31-Aug-20 17:02 37.234561 -122.167765 135 15921ft 399kts
31-Aug-20 17:03 37.153570 -122.069393 134 17951ft 411kts
31-Aug-20 17:04 37.069410 -121.968809 133 19924ft 425kts
31-Aug-20 17:05 36.982409 -121.865507 132 21842ft 436kts
31-Aug-20 17:06 36.893268 -121.760165 132 23542ft 446kts
31-Aug-20 17:07 36.802701 -121.652585 131 25101ft 453kts
31-Aug-20 17:08 36.710545 -121.543752 132 26545ft 459kts
31-Aug-20 17:09 36.628939 -121.448035 131 28187ft 453kts
31-Aug-20 17:10 36.538066 -121.341532 130 29982ft 444kts
31-Aug-20 17:11 36.448282 -121.236340 131 31510ft 440kts
31-Aug-20 17:12 36.357820 -121.134694 135 32800ft 439kts
31-Aug-20 17:13 36.262914 -121.039927 136 33961ft 437kts
31-Aug-20 17:14 36.169377 -120.943794 135 34827ft 438kts
31-Aug-20 17:15 36.087779 -120.860241 136 34841ft 438kts
31-Aug-20 17:16 36.007254 -120.778156 135 34779ft 434kts
31-Aug-20 17:17 35.912507 -120.681670 137 34885ft 444kts
31-Aug-20 17:18 35.817101 -120.584975 138 34888ft 441kts
31-Aug-20 17:19 35.722161 -120.489475 137 34778ft 439kts
31-Aug-20 17:20 35.626520 -120.394527 138 34894ft 444kts
31-Aug-20 17:21 35.531289 -120.297387 136 34903ft 442kts
31-Aug-20 17:22 35.438285 -120.198552 137 34799ft 442kts
31-Aug-20 17:23 35.344184 -120.100894 137 34587ft 450kts
31-Aug-20 17:24 35.258535 -120.011968 137 33329ft 482kts
31-Aug-20 17:25 35.154607 -119.905092 138 31874ft 472kts
31-Aug-20 17:26 35.067469 -119.816500 138 27396ft 462kts
31-Aug-20 17:27 34.970896 -119.720278 136 21834ft 455kts
31-Aug-20 17:28 34.885902 -119.627711 137 20170ft 380kts
31-Aug-20 17:29 34.816858 -119.532783 126 18672ft 370kts
31-Aug-20 17:30 34.761091 -119.446610 127 17374ft 363kts
31-Aug-20 17:31 34.698566 -119.352240 128 15874ft 354kts
31-Aug-20 17:32 34.646682 -119.273215 125 14593ft 344kts
31-Aug-20 17:34 34.604632 -119.190831 119 13305ft 327kts
31-Aug-20 17:35 34.560152 -119.100277 122 11824ft 310kts
31-Aug-20 17:36 34.493839 -119.048916 167 11021ft 294kts
31-Aug-20 17:37 34.423773 -118.998139 137 10135ft 298kts
31-Aug-20 17:38 34.386410 -118.915842 98 8743ft 285kts
31-Aug-20 17:39 34.372467 -118.837439 103 7543ft 273kts
31-Aug-20 17:40 34.360708 -118.748737 97 6183ft 266kts
31-Aug-20 17:41 34.352974 -118.662320 97 5988ft 255kts
31-Aug-20 17:42 34.345882 -118.579458 96 5982ft 254kts
31-Aug-20 17:43 34.338007 -118.494123 101 5207ft 252kts
31-Aug-20 17:44 34.309718 -118.424990 129 4149ft 228kts
31-Aug-20 17:45 34.280713 -118.384415 142 3501ft 157kts
31-Aug-20 17:46 34.235151 -118.366364 174 1754ft 177kts
31-Aug-20 17:47 34.201351 -118.357501 165 787ft 52kts
31-Aug-20 17:48 34.196901 -118.355998 126 787ft 2kts
31-Aug-20 17:49 34.196422 -118.355501 100 787ft 0kts
31-Aug-20 17:50 34.196422 -118.355501 100 787ft 0kts

Navigation Log

Ident Type
Flight plan parsing failed, navigation log unavailable